Time;durP1;ratioP1;P1;durP2;ratioP2;P2;SDS_P1;SDS_P2;PMS_P1;PMS_P2;Temp;Humidity;BMP_temperature;BMP_pressure;BME280_temperature;BME280_humidity;BME280_pressure;Samples;Min_cycle;Max_cycle;Signal;HPM_P1;HPM_P2
2024/05/01 00:01:20;;;;;;;30.83;21.17;;;14.50;99.90;;;;;;5410168;26;20115;-76
2024/05/01 00:03:47;;;;;;;25.30;20.75;;;14.50;99.90;;;;;;5382576;26;20036;-76
2024/05/01 00:06:14;;;;;;;21.85;18.17;;;14.60;99.90;;;;;;5410063;26;20446;-76
2024/05/01 00:08:48;;;;;;;26.48;19.10;;;14.60;99.90;;;;;;5409011;26;20002;-76
2024/05/01 00:11:15;;;;;;;21.75;18.00;;;14.60;99.90;;;;;;5380843;26;19996;-76
2024/05/01 00:13:42;;;;;;;22.67;18.55;;;14.60;99.90;;;;;;5382138;26;19996;-76
2024/05/01 00:16:09;;;;;;;25.95;20.25;;;14.60;99.90;;;;;;5380310;26;20047;-75
2024/05/01 00:18:36;;;;;;;23.73;18.85;;;14.60;99.90;;;;;;5379998;26;20000;-75
2024/05/01 00:21:05;;;;;;;22.67;19.23;;;14.60;99.90;;;;;;5382024;26;20450;-76
2024/05/01 00:23:33;;;;;;;22.70;18.25;;;14.60;99.90;;;;;;5379988;26;20077;-76
2024/05/01 00:26:00;;;;;;;22.98;19.92;;;14.60;99.90;;;;;;5380175;26;20078;-75
2024/05/01 00:28:27;;;;;;;25.38;18.10;;;14.50;99.90;;;;;;5380006;26;20518;-75
2024/05/01 00:30:54;;;;;;;21.75;18.02;;;14.50;99.90;;;;;;5380116;26;20449;-75
2024/05/01 00:33:21;;;;;;;20.00;17.85;;;14.50;99.90;;;;;;5381786;26;20073;-75
2024/05/01 00:35:48;;;;;;;20.58;17.60;;;14.40;99.90;;;;;;5379875;26;20008;-75
2024/05/01 00:38:15;;;;;;;22.63;18.52;;;14.40;99.90;;;;;;5380146;26;20029;-76
2024/05/01 00:40:47;;;;;;;23.67;19.05;;;14.40;99.90;;;;;;5379606;26;20004;-75
2024/05/01 00:43:14;;;;;;;21.05;18.02;;;14.40;99.90;;;;;;5380264;26;19997;-75
2024/05/01 00:45:41;;;;;;;23.80;20.23;;;14.40;99.90;;;;;;5379823;26;20001;-75
2024/05/01 00:48:08;;;;;;;24.95;18.00;;;14.30;99.90;;;;;;5380207;26;20454;-76
2024/05/01 00:50:36;;;;;;;22.88;18.30;;;14.30;99.90;;;;;;5409001;26;19996;-75
2024/05/01 00:53:05;;;;;;;25.92;17.65;;;14.30;99.90;;;;;;5409725;26;20000;-76
2024/05/01 00:55:33;;;;;;;21.30;17.70;;;14.30;99.90;;;;;;5379362;26;20441;-76
2024/05/01 00:58:01;;;;;;;22.05;18.27;;;14.30;99.90;;;;;;5409249;26;20395;-75
2024/05/01 01:00:28;;;;;;;24.50;18.70;;;14.30;99.90;;;;;;5381471;26;20000;-75
2024/05/01 01:02:55;;;;;;;24.85;19.08;;;14.20;99.90;;;;;;5349245;26;20000;-76
2024/05/01 01:05:22;;;;;;;25.67;18.02;;;14.20;99.90;;;;;;5409183;26;20036;-76
2024/05/01 01:07:50;;;;;;;24.35;19.27;;;14.20;99.90;;;;;;5378777;26;20008;-76
2024/05/01 01:10:17;;;;;;;22.95;18.38;;;14.20;99.90;;;;;;5408935;26;20000;-76
2024/05/01 01:12:44;;;;;;;24.08;18.55;;;14.20;99.90;;;;;;5379028;26;20000;-76
2024/05/01 01:15:11;;;;;;;20.40;17.70;;;14.20;99.90;;;;;;5408921;26;20004;-75
2024/05/01 01:17:39;;;;;;;23.17;19.00;;;14.20;99.90;;;;;;5350457;26;19996;-76
2024/05/01 01:20:07;;;;;;;23.25;17.40;;;14.20;99.90;;;;;;5381613;26;20006;-75
2024/05/01 01:22:34;;;;;;;23.92;18.23;;;14.20;99.90;;;;;;5381278;26;20011;-75
2024/05/01 01:25:01;;;;;;;23.65;19.75;;;14.10;99.90;;;;;;5381151;26;20012;-75
2024/05/01 01:27:28;;;;;;;25.23;19.27;;;14.10;99.90;;;;;;5379367;26;19996;-75
2024/05/01 01:29:55;;;;;;;24.30;21.02;;;14.10;99.90;;;;;;5381052;26;20008;-76
2024/05/01 01:32:22;;;;;;;24.25;20.55;;;14.10;99.90;;;;;;5408635;26;20011;-76
2024/05/01 01:34:49;;;;;;;25.00;20.30;;;14.00;99.90;;;;;;5408407;26;20015;-76
2024/05/01 01:37:16;;;;;;;24.10;19.50;;;14.00;99.90;;;;;;5379257;26;20015;-75
2024/05/01 01:39:43;;;;;;;24.55;20.00;;;14.00;99.90;;;;;;5408391;26;20007;-75
2024/05/01 01:42:10;;;;;;;25.45;20.15;;;14.00;99.90;;;;;;5380923;26;20000;-76
2024/05/01 01:44:37;;;;;;;23.83;19.77;;;14.00;99.90;;;;;;5380147;26;20077;-76
2024/05/01 01:47:05;;;;;;;21.92;19.63;;;13.90;99.90;;;;;;5379066;26;20000;-76
2024/05/01 01:49:32;;;;;;;24.23;19.77;;;13.90;99.90;;;;;;5379025;26;20012;-75
2024/05/01 01:51:59;;;;;;;22.92;17.90;;;13.90;99.90;;;;;;5380296;26;20001;-75
2024/05/01 01:54:26;;;;;;;22.65;18.85;;;13.80;99.90;;;;;;5408403;26;20028;-75
2024/05/01 01:56:53;;;;;;;27.98;19.25;;;13.80;99.90;;;;;;5380365;26;19996;-76
2024/05/01 01:59:20;;;;;;;25.27;19.13;;;13.80;99.90;;;;;;5380920;26;20332;-75
2024/05/01 02:01:47;;;;;;;23.40;19.60;;;13.70;99.90;;;;;;5378491;26;19996;-75
2024/05/01 02:04:14;;;;;;;26.33;20.42;;;13.60;99.90;;;;;;5378898;26;20011;-76
2024/05/01 02:06:42;;;;;;;21.67;18.30;;;13.60;99.90;;;;;;5380048;26;20317;-75
2024/05/01 02:09:10;;;;;;;25.83;21.70;;;13.60;99.90;;;;;;5378900;26;20453;-75
2024/05/01 02:11:37;;;;;;;22.27;18.30;;;13.50;99.90;;;;;;5408033;26;20000;-75
2024/05/01 02:14:04;;;;;;;22.17;18.58;;;13.50;99.90;;;;;;5378668;26;20074;-76
2024/05/01 02:16:31;;;;;;;20.38;17.40;;;13.40;99.90;;;;;;5407867;26;20001;-76
2024/05/01 02:18:58;;;;;;;25.38;20.45;;;13.40;99.90;;;;;;5378226;26;20000;-75
2024/05/01 02:21:25;;;;;;;22.75;20.35;;;13.30;99.90;;;;;;5380957;26;20015;-76
2024/05/01 02:23:52;;;;;;;25.40;20.00;;;13.30;99.90;;;;;;5383307;26;20001;-75
2024/05/01 02:26:20;;;;;;;26.42;21.17;;;13.30;99.90;;;;;;5383615;26;20036;-75
2024/05/01 02:28:47;;;;;;;26.38;21.48;;;13.30;99.90;;;;;;5381621;26;20000;-76
2024/05/01 02:31:14;;;;;;;26.73;20.60;;;13.20;99.90;;;;;;5381883;26;20345;-76
2024/05/01 02:33:43;;;;;;;25.67;19.58;;;13.20;99.90;;;;;;5383628;26;19996;-76
2024/05/01 02:36:10;;;;;;;25.05;19.90;;;13.20;99.90;;;;;;5411671;26;20007;-75
2024/05/01 02:38:37;;;;;;;24.80;20.33;;;13.20;99.90;;;;;;5382282;26;19996;-76
2024/05/01 02:41:08;;;;;;;26.15;20.75;;;13.20;99.90;;;;;;5381746;26;19996;-75
2024/05/01 02:43:35;;;;;;;28.08;20.85;;;13.20;99.90;;;;;;5383858;26;20451;-76
2024/05/01 02:46:02;;;;;;;25.38;20.05;;;13.20;99.90;;;;;;5411119;26;20325;-75
2024/05/01 02:48:29;;;;;;;31.17;20.38;;;13.20;99.90;;;;;;5411034;26;20445;-75
2024/05/01 02:50:56;;;;;;;30.50;20.50;;;13.20;99.90;;;;;;5352237;26;20063;-75
2024/05/01 02:53:23;;;;;;;24.55;20.33;;;13.20;99.90;;;;;;5383139;26;20000;-75
2024/05/01 02:55:50;;;;;;;26.65;21.48;;;13.30;99.90;;;;;;5382809;26;20000;-76
2024/05/01 02:58:18;;;;;;;27.92;21.25;;;13.20;99.90;;;;;;5383032;26;20068;-76
2024/05/01 03:00:45;;;;;;;28.33;21.52;;;13.30;99.90;;;;;;5403972;26;20008;-75
2024/05/01 03:03:12;;;;;;;27.05;20.77;;;13.30;99.90;;;;;;5347741;26;20012;-76
2024/05/01 03:05:40;;;;;;;28.38;21.92;;;13.20;99.90;;;;;;5346984;26;20017;-75
2024/05/01 03:08:07;;;;;;;25.23;21.38;;;13.30;99.90;;;;;;5346039;26;20005;-75
2024/05/01 03:10:34;;;;;;;28.95;23.25;;;13.30;99.90;;;;;;5375212;26;20001;-76
2024/05/01 03:13:01;;;;;;;25.98;22.55;;;13.30;99.90;;;;;;5375210;26;20075;-75
2024/05/01 03:15:28;;;;;;;27.08;21.40;;;13.30;99.90;;;;;;5346772;26;20009;-75
2024/05/01 03:17:56;;;;;;;27.67;22.45;;;13.30;99.90;;;;;;5348049;26;20025;-75
2024/05/01 03:20:23;;;;;;;27.85;23.85;;;13.30;99.90;;;;;;5346381;26;20016;-75
2024/05/01 03:22:50;;;;;;;27.10;21.55;;;13.30;99.90;;;;;;5317272;26;20071;-75
2024/05/01 03:25:17;;;;;;;26.73;21.48;;;13.30;99.90;;;;;;5346300;26;19997;-75
2024/05/01 03:27:44;;;;;;;25.75;20.83;;;13.30;99.90;;;;;;5348179;26;20008;-75
2024/05/01 03:30:11;;;;;;;28.25;21.88;;;13.30;99.90;;;;;;5317131;26;20361;-76
2024/05/01 03:32:38;;;;;;;31.50;24.20;;;13.30;99.90;;;;;;5345770;26;20028;-75
2024/05/01 03:35:05;;;;;;;30.58;23.45;;;13.30;99.90;;;;;;5374876;26;20070;-75
2024/05/01 03:37:32;;;;;;;27.35;22.92;;;13.30;99.90;;;;;;5345862;26;20016;-75
2024/05/01 03:40:00;;;;;;;27.77;22.08;;;13.30;99.90;;;;;;5345587;26;20025;-75
2024/05/01 03:42:27;;;;;;;28.73;23.42;;;13.30;99.90;;;;;;5346023;26;20019;-75
2024/05/01 03:44:54;;;;;;;28.08;23.00;;;13.30;99.90;;;;;;5316960;26;20078;-75
2024/05/01 03:47:21;;;;;;;27.52;22.35;;;13.30;99.90;;;;;;5374657;26;20001;-76
2024/05/01 03:49:48;;;;;;;28.17;23.23;;;13.30;99.90;;;;;;5317062;26;20013;-75
2024/05/01 03:52:15;;;;;;;27.75;22.13;;;13.30;99.90;;;;;;5347560;26;20320;-75
2024/05/01 03:54:42;;;;;;;30.20;23.23;;;13.30;99.90;;;;;;5347720;26;20008;-76
2024/05/01 03:57:09;;;;;;;30.48;23.15;;;13.30;99.90;;;;;;5347406;26;19997;-75
2024/05/01 03:59:40;;;;;;;27.52;23.35;;;13.30;99.90;;;;;;5347592;26;20015;-75
2024/05/01 04:02:07;;;;;;;29.25;22.42;;;13.30;99.90;;;;;;5347487;26;20075;-75
2024/05/01 04:04:34;;;;;;;25.70;21.58;;;13.20;99.90;;;;;;5317033;26;20008;-76
2024/05/01 04:07:02;;;;;;;27.13;23.25;;;13.20;99.90;;;;;;5374202;26;20008;-76
2024/05/01 04:09:29;;;;;;;27.20;22.90;;;13.20;99.90;;;;;;5345876;26;20015;-75
2024/05/01 04:11:56;;;;;;;30.25;22.52;;;13.20;99.90;;;;;;5345341;26;20009;-75
2024/05/01 04:14:24;;;;;;;30.80;24.23;;;13.20;99.90;;;;;;5345324;26;20331;-75
2024/05/01 04:16:51;;;;;;;28.48;23.42;;;13.20;99.90;;;;;;5347276;26;20015;-76
2024/05/01 04:19:18;;;;;;;30.02;24.05;;;13.20;99.90;;;;;;5347039;26;20017;-75
2024/05/01 04:21:45;;;;;;;30.27;22.85;;;13.20;99.90;;;;;;5374546;26;19997;-76
2024/05/01 04:24:12;;;;;;;31.60;24.13;;;13.30;99.90;;;;;;5345351;26;20001;-76
2024/05/01 04:26:39;;;;;;;29.15;22.35;;;13.30;99.90;;;;;;5345233;26;20087;-76
2024/05/01 04:29:06;;;;;;;26.90;21.80;;;13.30;99.90;;;;;;5288069;26;20001;-76
2024/05/01 04:31:33;;;;;;;28.00;23.10;;;13.30;99.90;;;;;;5345192;26;20000;-75
2024/05/01 04:34:01;;;;;;;29.60;21.48;;;13.30;99.90;;;;;;5346386;26;20329;-75
2024/05/01 04:36:28;;;;;;;24.10;19.65;;;13.40;99.90;;;;;;5374266;26;20000;-75
2024/05/01 04:38:55;;;;;;;31.60;22.05;;;13.50;99.90;;;;;;5346814;26;20011;-75
2024/05/01 04:41:22;;;;;;;26.05;20.73;;;13.50;99.90;;;;;;5374237;26;20403;-75
2024/05/01 04:43:49;;;;;;;26.80;20.10;;;13.50;99.90;;;;;;5373120;26;20331;-75
2024/05/01 04:46:16;;;;;;;26.30;21.40;;;13.60;99.90;;;;;;5315999;26;20338;-76
2024/05/01 04:48:43;;;;;;;24.50;19.80;;;13.60;99.90;;;;;;5345442;26;19997;-75
2024/05/01 04:51:11;;;;;;;25.65;20.52;;;13.60;99.90;;;;;;5373717;26;20007;-75
2024/05/01 04:53:38;;;;;;;25.77;21.40;;;13.70;99.90;;;;;;5345059;26;19997;-75
2024/05/01 04:56:05;;;;;;;26.58;21.27;;;13.70;99.90;;;;;;5346677;26;20586;-75
2024/05/01 04:58:32;;;;;;;23.38;19.08;;;13.80;99.90;;;;;;5346904;26;19997;-75
2024/05/01 05:01:00;;;;;;;26.95;20.42;;;13.90;99.90;;;;;;5354949;26;20407;-75
2024/05/01 05:03:27;;;;;;;26.17;20.90;;;13.90;99.90;;;;;;5380884;26;20019;-75
2024/05/01 05:05:54;;;;;;;23.90;20.48;;;14.00;99.90;;;;;;5377156;26;20448;-75
2024/05/01 05:08:21;;;;;;;24.63;18.67;;;14.20;99.90;;;;;;5379580;26;20000;-75
2024/05/01 05:10:48;;;;;;;22.92;17.83;;;14.30;99.90;;;;;;5379471;26;20438;-76
2024/05/01 05:13:15;;;;;;;26.55;21.75;;;14.40;99.90;;;;;;5350259;26;20445;-75
2024/05/01 05:15:42;;;;;;;24.27;19.77;;;14.50;99.90;;;;;;5408885;26;20028;-76
2024/05/01 05:18:09;;;;;;;20.48;18.27;;;14.50;99.90;;;;;;5379154;26;20000;-75
2024/05/01 05:20:36;;;;;;;19.90;18.05;;;14.60;99.90;;;;;;5379567;26;20004;-75
2024/05/01 05:23:04;;;;;;;19.38;17.45;;;14.60;99.90;;;;;;5380844;26;20000;-75
2024/05/01 05:25:31;;;;;;;27.27;17.65;;;14.60;99.90;;;;;;5379756;26;20402;-75
2024/05/01 05:27:58;;;;;;;27.30;19.10;;;14.60;99.90;;;;;;5379735;26;19996;-74
2024/05/01 05:30:25;;;;;;;27.60;20.60;;;14.70;99.90;;;;;;5381033;26;19996;-73
2024/05/01 05:32:52;;;;;;;28.15;20.20;;;14.80;99.90;;;;;;5381327;26;20077;-74
2024/05/01 05:35:19;;;;;;;25.45;19.48;;;15.00;99.90;;;;;;5380661;26;20028;-74
2024/05/01 05:37:46;;;;;;;25.52;20.10;;;15.10;99.90;;;;;;5379285;26;20061;-74
2024/05/01 05:40:13;;;;;;;27.55;20.58;;;15.30;99.90;;;;;;5381213;26;19996;-74
2024/05/01 05:42:40;;;;;;;24.92;20.15;;;15.50;99.90;;;;;;5380723;26;20011;-73
2024/05/01 05:45:08;;;;;;;27.52;21.60;;;15.60;99.90;;;;;;5378669;26;20005;-73
2024/05/01 05:47:35;;;;;;;27.00;19.75;;;15.70;99.90;;;;;;5380720;26;20012;-74
2024/05/01 05:50:03;;;;;;;23.42;19.95;;;15.90;99.90;;;;;;5380699;26;20000;-74
2024/05/01 05:52:30;;;;;;;23.38;19.27;;;16.20;99.90;;;;;;5349691;26;20011;-74
2024/05/01 05:54:57;;;;;;;23.15;18.60;;;16.60;99.90;;;;;;5350382;26;20449;-73
2024/05/01 05:57:24;;;;;;;27.80;19.48;;;16.90;99.90;;;;;;5383674;26;20000;-74
2024/05/01 05:59:51;;;;;;;23.45;20.60;;;17.10;99.90;;;;;;5382253;26;20000;-73
2024/05/01 06:02:18;;;;;;;24.17;18.98;;;17.40;99.90;;;;;;5381747;26;20073;-74
2024/05/01 06:04:45;;;;;;;20.15;17.50;;;17.60;99.90;;;;;;5383837;26;20001;-74
2024/05/01 06:07:12;;;;;;;21.13;18.17;;;17.90;99.90;;;;;;5381993;26;19996;-75
2024/05/01 06:09:39;;;;;;;21.02;17.15;;;18.20;99.90;;;;;;5382010;26;20008;-74
2024/05/01 06:12:06;;;;;;;17.65;15.90;;;18.50;99.90;;;;;;5348952;26;20079;-74
2024/05/01 06:14:33;;;;;;;17.63;15.48;;;18.90;99.90;;;;;;5355990;26;20295;-74
2024/05/01 06:17:00;;;;;;;19.30;16.08;;;19.30;99.90;;;;;;5370199;26;20000;-75
2024/05/01 06:19:28;;;;;;;19.77;16.38;;;19.60;99.90;;;;;;5368553;26;20038;-74
2024/05/01 06:21:55;;;;;;;19.05;16.90;;;19.70;99.90;;;;;;5350586;26;20015;-74
2024/05/01 06:24:22;;;;;;;18.38;16.58;;;19.80;99.90;;;;;;5348323;26;20513;-74
2024/05/01 06:26:49;;;;;;;18.70;16.80;;;19.80;99.90;;;;;;5348100;26;20037;-74
2024/05/01 06:29:16;;;;;;;19.23;16.00;;;20.00;99.90;;;;;;5346572;26;20396;-74
2024/05/01 06:31:43;;;;;;;17.35;15.05;;;20.20;99.90;;;;;;5346851;26;20079;-74
2024/05/01 06:34:10;;;;;;;18.00;15.40;;;20.20;99.90;;;;;;5348363;26;20807;-75
2024/05/01 06:36:38;;;;;;;19.52;17.58;;;20.20;99.90;;;;;;5348553;26;20000;-75
2024/05/01 06:39:05;;;;;;;18.75;15.88;;;20.20;99.90;;;;;;5346862;26;20037;-75
2024/05/01 06:41:32;;;;;;;18.90;15.55;;;20.30;99.90;;;;;;5347976;26;20331;-74
2024/05/01 06:43:59;;;;;;;17.77;14.55;;;20.50;99.90;;;;;;5348407;26;20453;-75
2024/05/01 06:46:27;;;;;;;17.70;15.82;;;20.70;99.90;;;;;;5346481;26;20001;-75
2024/05/01 06:48:54;;;;;;;20.80;15.85;;;20.70;99.90;;;;;;5346625;26;19997;-75
2024/05/01 06:51:21;;;;;;;16.85;15.05;;;20.80;99.90;;;;;;5348123;26;20001;-76
2024/05/01 06:53:48;;;;;;;18.83;16.73;;;20.80;99.90;;;;;;5346905;26;20011;-75
2024/05/01 06:56:15;;;;;;;17.38;15.68;;;20.90;99.90;;;;;;5346449;26;20334;-76
2024/05/01 06:58:42;;;;;;;18.98;16.85;;;20.80;99.90;;;;;;5348276;26;20009;-75
2024/05/01 07:01:09;;;;;;;17.52;14.88;;;20.40;99.90;;;;;;5348198;26;20014;-76
2024/05/01 07:03:37;;;;;;;21.33;16.33;;;20.00;99.90;;;;;;5347793;26;20315;-76
2024/05/01 07:06:04;;;;;;;16.25;14.55;;;19.80;99.90;;;;;;5347665;26;20036;-76
2024/05/01 07:08:31;;;;;;;19.30;15.55;;;19.60;99.90;;;;;;5347572;26;20016;-76
2024/05/01 07:10:58;;;;;;;18.75;16.90;;;19.50;99.90;;;;;;5347976;26;20461;-75
2024/05/01 07:13:25;;;;;;;18.13;16.08;;;19.70;99.90;;;;;;5346373;26;20000;-76
2024/05/01 07:15:53;;;;;;;20.15;16.55;;;19.90;99.90;;;;;;5348122;26;20013;-76
2024/05/01 07:18:20;;;;;;;18.33;16.42;;;20.00;99.90;;;;;;5347820;26;20001;-75
2024/05/01 07:20:47;;;;;;;16.83;15.10;;;20.10;99.90;;;;;;5347912;26;20082;-76
2024/05/01 07:23:20;;;;;;;19.88;17.83;;;20.40;99.90;;;;;;5317604;26;20055;-76
2024/05/01 07:25:48;;;;;;;17.67;14.88;;;20.30;99.90;;;;;;5317921;26;19997;-76
2024/05/01 07:28:15;;;;;;;18.10;16.30;;;20.10;99.90;;;;;;5347917;26;20036;-76
2024/05/01 07:30:42;;;;;;;17.67;15.80;;;19.80;99.90;;;;;;5317460;26;20438;-76
2024/05/01 07:33:10;;;;;;;18.63;15.60;;;19.60;99.90;;;;;;5346384;26;19997;-76
2024/05/01 07:35:37;;;;;;;21.08;18.92;;;19.30;99.90;;;;;;5345579;26;20389;-76
2024/05/01 07:38:09;;;;;;;17.00;15.20;;;19.00;99.90;;;;;;5345965;26;19997;-76
2024/05/01 07:40:37;;;;;;;18.83;15.57;;;18.80;99.90;;;;;;5347275;26;20446;-76
2024/05/01 07:43:13;;;;;;;17.73;15.82;;;18.50;99.90;;;;;;5347607;26;20012;-76
2024/05/01 07:45:41;;;;;;;;;;;18.30;99.90;;;;;;5346265;26;20001;-76
2024/05/01 07:48:09;;;;;;;20.67;17.15;;;18.20;99.90;;;;;;5347644;26;19995;-76
2024/05/01 07:50:37;;;;;;;19.75;16.98;;;18.10;99.90;;;;;;5347068;26;20012;-75
2024/05/01 07:53:04;;;;;;;19.23;17.27;;;18.10;99.90;;;;;;5347505;26;20015;-76
2024/05/01 07:55:32;;;;;;;18.52;16.60;;;18.20;99.90;;;;;;5316979;26;20009;-76
2024/05/01 07:57:59;;;;;;;20.17;18.08;;;18.20;99.90;;;;;;5347445;26;20445;-76
2024/05/01 08:00:26;;;;;;;21.15;16.35;;;18.30;99.90;;;;;;5374240;26;20009;-75
2024/05/01 08:02:53;;;;;;;18.58;15.40;;;19.00;99.90;;;;;;5347278;26;20012;-75
2024/05/01 08:05:20;;;;;;;16.23;14.02;;;20.20;99.90;;;;;;5345979;26;19996;-75
2024/05/01 08:07:48;;;;;;;17.58;15.75;;;21.70;99.90;;;;;;5316638;26;19997;-75
2024/05/01 08:10:16;;;;;;;18.00;16.20;;;22.90;99.90;;;;;;5347354;26;20389;-75
2024/05/01 08:12:43;;;;;;;18.42;16.55;;;23.80;99.30;;;;;;5347011;26;20008;-75
2024/05/01 08:15:10;;;;;;;15.93;14.32;;;24.20;96.70;;;;;;5345296;26;20334;-75
2024/05/01 08:17:37;;;;;;;17.83;15.80;;;24.60;96.30;;;;;;5373300;26;19993;-75
2024/05/01 08:20:06;;;;;;;17.67;15.95;;;25.30;95.70;;;;;;5345071;26;20016;-75
2024/05/01 08:22:33;;;;;;;17.05;15.32;;;25.70;94.60;;;;;;5345027;26;20001;-75
2024/05/01 08:25:00;;;;;;;18.02;15.38;;;26.00;93.30;;;;;;5316578;26;20001;-74
2024/05/01 08:27:28;;;;;;;16.30;14.60;;;26.20;93.30;;;;;;5346773;26;20005;-75
2024/05/01 08:29:58;;;;;;;15.55;13.70;;;26.50;92.60;;;;;;5346687;26;20001;-75
2024/05/01 08:32:25;;;;;;;16.42;14.82;;;26.80;91.00;;;;;;5346869;26;20017;-75
2024/05/01 08:34:52;;;;;;;17.15;15.45;;;26.70;86.60;;;;;;5346373;26;20005;-75
2024/05/01 08:37:23;;;;;;;18.65;15.50;;;26.70;89.20;;;;;;5346701;26;20029;-75
2024/05/01 08:39:51;;;;;;;17.70;16.00;;;26.80;88.90;;;;;;5344836;26;20438;-75
2024/05/01 08:42:18;;;;;;;16.92;15.23;;;27.00;89.10;;;;;;5340074;26;20359;-75
2024/05/01 08:44:48;;;;;;;17.35;15.45;;;27.20;88.60;;;;;;5381357;26;20328;-76
2024/05/01 08:47:18;;;;;;;16.25;14.73;;;27.40;87.70;;;;;;5381516;26;20024;-76
2024/05/01 08:49:46;;;;;;;16.70;15.07;;;27.50;86.90;;;;;;5379448;26;20000;-75
2024/05/01 08:52:17;;;;;;;16.08;14.43;;;27.70;86.20;;;;;;5409301;26;20024;-75
2024/05/01 08:54:47;;;;;;;16.88;15.30;;;28.00;85.60;;;;;;5379741;26;19996;-75
2024/05/01 08:57:16;;;;;;;16.90;14.27;;;28.20;84.80;;;;;;5381862;26;20016;-75
2024/05/01 08:59:45;;;;;;;16.27;14.85;;;28.30;83.80;;;;;;5408739;26;20000;-75
2024/05/01 09:02:19;;;;;;;13.75;12.45;;;28.20;83.60;;;;;;5381213;26;20015;-75
2024/05/01 09:04:46;;;;;;;15.45;13.85;;;28.10;83.70;;;;;;5350348;26;20008;-75
2024/05/01 09:07:15;;;;;;;14.88;13.48;;;28.00;83.10;;;;;;5408432;26;20411;-75
2024/05/01 09:09:42;;;;;;;11.35;10.20;;;27.90;82.50;;;;;;5380713;26;20012;-75
2024/05/01 09:12:09;;;;;;;14.10;12.68;;;28.00;82.80;;;;;;5381179;26;20012;-75
2024/05/01 09:14:37;;;;;;;15.48;13.88;;;28.00;81.20;;;;;;5380677;26;20011;-75
2024/05/01 09:17:04;;;;;;;13.13;11.93;;;28.10;81.00;;;;;;5381035;26;20319;-75
2024/05/01 09:19:39;;;;;;;14.35;12.85;;;28.40;80.20;;;;;;5408473;26;20621;-75
2024/05/01 09:22:26;;;;;;;13.07;11.88;;;28.70;77.20;;;;;;5381341;26;20007;-75
2024/05/01 09:24:53;;;;;;;14.68;13.00;;;28.80;76.80;;;;;;5381022;26;20011;-75
2024/05/01 09:27:25;;;;;;;15.15;13.23;;;28.90;76.80;;;;;;5379573;26;20074;-75
2024/05/01 09:29:53;;;;;;;14.25;12.95;;;29.20;75.70;;;;;;5378798;26;20015;-75
2024/05/01 09:32:20;;;;;;;13.68;12.27;;;29.40;74.50;;;;;;5381265;26;19996;-75
2024/05/01 09:34:47;;;;;;;12.73;10.23;;;29.50;73.90;;;;;;5408357;26;19996;-75
2024/05/01 09:37:16;;;;;;;13.32;12.10;;;29.70;73.20;;;;;;5381048;26;20050;-76
2024/05/01 09:39:48;;;;;;;12.02;10.88;;;29.60;72.20;;;;;;5378592;26;20015;-75
2024/05/01 09:42:22;;;;;;;13.70;12.50;;;29.40;72.10;;;;;;5379104;26;20011;-76
2024/05/01 09:44:57;;;;;;;15.00;13.20;;;29.40;72.20;;;;;;5380528;26;20004;-76
2024/05/01 09:47:30;;;;;;;13.90;12.50;;;29.50;72.00;;;;;;5380708;26;20000;-76
2024/05/01 09:50:02;;;;;;;13.70;12.50;;;29.60;71.70;;;;;;5349830;26;20102;-76
2024/05/01 09:52:30;;;;;;;12.75;11.48;;;29.70;71.60;;;;;;5380529;26;20012;-76
2024/05/01 09:54:58;;;;;;;12.38;11.27;;;29.90;71.50;;;;;;5380261;26;20001;-76
2024/05/01 09:57:25;;;;;;;12.20;10.95;;;30.20;71.20;;;;;;5378658;26;20001;-76
2024/05/01 09:59:53;;;;;;;13.52;12.25;;;30.70;70.70;;;;;;5380086;26;20000;-75
2024/05/01 10:02:32;;;;;;;12.55;11.23;;;30.90;70.30;;;;;;5379011;26;20138;-76
2024/05/01 10:05:05;;;;;;;12.25;11.05;;;31.20;69.70;;;;;;5380356;26;20444;-76
2024/05/01 10:07:53;;;;;;;12.05;10.57;;;31.50;69.60;;;;;;5379818;26;20388;-76
2024/05/01 10:10:26;;;;;;;12.75;11.45;;;31.70;67.20;;;;;;5380205;26;20032;-75
2024/05/01 10:13:00;;;;;;;13.15;11.45;;;31.60;67.60;;;;;;5380141;26;20445;-75
2024/05/01 10:15:31;;;;;;;13.10;11.15;;;31.50;68.10;;;;;;5380594;26;20406;-75
2024/05/01 10:18:06;;;;;;;11.88;10.02;;;31.40;67.80;;;;;;5378024;26;20011;-75
2024/05/01 10:20:46;;;;;;;10.68;9.65;;;31.40;68.30;;;;;;5378294;26;20001;-75
2024/05/01 10:23:17;;;;;;;10.60;9.60;;;31.60;66.80;;;;;;5380011;26;20005;-76
2024/05/01 10:25:58;;;;;;;8.13;7.15;;;31.70;67.50;;;;;;5378866;26;20000;-75
2024/05/01 10:28:27;;;;;;;8.85;8.05;;;31.60;66.50;;;;;;5380272;26;20448;-75
2024/05/01 10:30:57;;;;;;;8.88;8.05;;;31.40;65.30;;;;;;5349004;26;20008;-75
2024/05/01 10:33:30;;;;;;;8.52;7.70;;;31.00;66.20;;;;;;5379576;26;20016;-75
2024/05/01 10:36:06;;;;;;;9.90;7.57;;;31.20;66.20;;;;;;5379201;26;20014;-75
2024/05/01 10:38:34;;;;;;;8.23;7.50;;;31.40;66.00;;;;;;5377857;26;20426;-75
2024/05/01 10:41:14;;;;;;;8.32;7.45;;;31.80;65.40;;;;;;5379789;26;20046;-75
2024/05/01 10:43:41;;;;;;;8.32;7.53;;;32.00;64.40;;;;;;5383637;26;20079;-75
2024/05/01 10:46:09;;;;;;;8.32;7.60;;;32.20;64.60;;;;;;5410787;26;20000;-75
2024/05/01 10:48:36;;;;;;;7.85;6.97;;;32.50;64.00;;;;;;5410612;26;20016;-75
2024/05/01 10:51:04;;;;;;;9.25;7.30;;;32.70;64.00;;;;;;5381498;26;20451;-75
2024/05/01 10:53:31;;;;;;;8.10;7.30;;;33.00;63.20;;;;;;5369560;26;20012;-75
2024/05/01 10:55:58;;;;;;;9.43;6.95;;;33.40;63.10;;;;;;5372540;26;20338;-75
2024/05/01 10:58:25;;;;;;;6.88;6.25;;;33.50;62.10;;;;;;5346094;26;20412;-75
2024/05/01 11:00:53;;;;;;;8.25;7.50;;;33.50;62.20;;;;;;5375089;26;20001;-75
2024/05/01 11:03:20;;;;;;;8.85;7.85;;;33.50;62.20;;;;;;5347908;26;20032;-75
2024/05/01 11:05:47;;;;;;;8.25;7.43;;;33.60;61.90;;;;;;5346266;26;20011;-75
2024/05/01 11:08:24;;;;;;;7.93;7.00;;;33.40;61.70;;;;;;5347695;26;20001;-75
2024/05/01 11:10:53;;;;;;;7.30;6.55;;;33.40;61.50;;;;;;5374901;26;20001;-75
2024/05/01 11:13:29;;;;;;;6.35;5.93;;;33.50;61.60;;;;;;5375166;26;20012;-75
2024/05/01 11:16:05;;;;;;;;;;;33.60;61.50;;;;;;5348115;26;20011;-75
2024/05/01 11:18:32;;;;;;;6.68;6.10;;;33.70;61.80;;;;;;5345812;26;19941;-75
2024/05/01 11:21:01;;;;;;;8.70;6.28;;;33.80;61.30;;;;;;5345946;26;19996;-75
2024/05/01 11:23:29;;;;;;;7.38;6.65;;;33.50;61.30;;;;;;5348163;26;20449;-75
2024/05/01 11:25:57;;;;;;;7.63;6.05;;;33.40;61.40;;;;;;5345948;26;19997;-75
2024/05/01 11:28:24;;;;;;;6.63;6.03;;;33.30;61.20;;;;;;5345850;26;20078;-75
2024/05/01 11:30:52;;;;;;;8.02;6.25;;;33.10;61.10;;;;;;5347949;26;20071;-75
2024/05/01 11:33:20;;;;;;;7.25;6.65;;;33.00;61.30;;;;;;5347646;26;19997;-75
2024/05/01 11:35:47;;;;;;;6.32;5.72;;;32.80;60.90;;;;;;5346120;26;20028;-75
2024/05/01 11:38:14;;;;;;;5.70;5.22;;;32.30;61.20;;;;;;5345165;26;20059;-75
2024/05/01 11:40:41;;;;;;;5.80;5.20;;;32.00;61.70;;;;;;5345695;26;20009;-75
2024/05/01 11:43:08;;;;;;;6.28;5.63;;;31.90;61.90;;;;;;5374282;26;20113;-75
2024/05/01 11:45:36;;;;;;;17.92;5.57;;;32.10;61.90;;;;;;5345713;26;20012;-75
2024/05/01 11:48:04;;;;;;;5.82;5.30;;;32.50;61.40;;;;;;5346866;26;20354;-75
2024/05/01 11:50:31;;;;;;;8.50;5.30;;;32.60;60.80;;;;;;5316942;26;20005;-75
2024/05/01 11:52:58;;;;;;;6.47;4.93;;;32.70;60.70;;;;;;5315257;26;20009;-75
2024/05/01 11:55:30;;;;;;;5.80;4.63;;;32.80;60.50;;;;;;5348536;26;20045;-75
2024/05/01 11:58:07;;;;;;;5.07;4.65;;;33.00;60.30;;;;;;5374236;26;20032;-75
2024/05/01 12:00:38;;;;;;;6.75;4.15;;;33.30;60.30;;;;;;5380567;26;20074;-75
2024/05/01 12:03:06;;;;;;;5.68;4.57;;;33.30;58.90;;;;;;5379965;26;20031;-74
2024/05/01 12:05:34;;;;;;;4.68;4.32;;;33.30;59.20;;;;;;5348608;26;20017;-75
2024/05/01 12:08:10;;;;;;;4.72;4.05;;;33.30;58.90;;;;;;5346788;26;20001;-75
2024/05/01 12:10:37;;;;;;;4.82;4.40;;;33.10;58.90;;;;;;5374319;26;20071;-75
2024/05/01 12:13:07;;;;;;;4.53;4.13;;;33.10;59.30;;;;;;5345166;26;20025;-75
2024/05/01 12:15:38;;;;;;;4.88;4.38;;;33.10;58.90;;;;;;5345185;26;20482;-75
2024/05/01 12:18:08;;;;;;;8.18;4.68;;;32.90;58.50;;;;;;5344962;26;20009;-75
2024/05/01 12:20:36;;;;;;;4.55;4.15;;;32.80;58.80;;;;;;5347173;26;20012;-75
2024/05/01 12:23:04;;;;;;;3.47;3.13;;;32.70;58.60;;;;;;5346808;26;20016;-75
2024/05/01 12:25:38;;;;;;;4.70;4.35;;;32.70;58.00;;;;;;5374192;26;20078;-75
2024/05/01 12:28:16;;;;;;;4.25;3.95;;;32.50;58.00;;;;;;5344974;26;20117;-75
2024/05/01 12:30:43;;;;;;;3.58;3.28;;;32.40;57.70;;;;;;5374472;26;20009;-75
2024/05/01 12:33:36;;;;;;;3.25;2.80;;;32.50;57.80;;;;;;5344985;26;20019;-75
2024/05/01 12:36:12;;;;;;;4.00;3.25;;;32.70;56.30;;;;;;5344755;26;20009;-75